Pomona, IL (62975)

00:22 CST le 30 janvier 2015 (GMT -0600)
Cedar Lake Boat Launch | Change Station
CLOSE
Current Station
Stations météorologiques personnelles
Location: Carbondale, IL
Altitude: 548 ft
Stations météo à proximité

Alt. 548 ft 37.67 °N, 89.27 °W | Updated 5 minutes ago

Couvert
Couvert
36.1 ° F
Paraît 32 ° F
N
5.0
Vent Variable Vent de NNO
Gusts 14.0 mph

Aujourd'hui
Haut(e) -- | Bas -- ° F
--% Risque de précip.
Hier
Haut(e) -- | Bas -- ° F
Precip. -- pouce
7:02 AM 5:18 PM
Lune gibbeuse croissante, 80% visible
Pression 30.43 pouce
Visibilité 10.0 Miles terrestres
Nuages Couvert 3100 ft
Refroidissement éolien 32 ° F
Point de rosée 28 ° F
Humidité 72%
Précipitations 0.00 pouce
Profondeur de la couche neigeuse Non disponible.
UV 0 sur 12
Pollen 1.30 sur 12
Qualité de l'air Non disponible.
Flu Activity Non disponible.
SPECI KMDH 300607Z AUTO 33008KT 10SM OVC031 02/M04 A3043 RMK AO2 T00221039

More Conditions Fewer Conditions

Pression 30.43 pouce
Visibilité 10.0 Miles terrestres
Nuages Couvert 3100 ft
Refroidissement éolien 32 ° F
Point de rosée 28 ° F
Humidité 72%
Précipitations 0.00 pouce
Profondeur de la couche neigeuse Non disponible.
UV 0 sur 12
Pollen 1.30 sur 12
Qualité de l'air Non disponible.
Flu Activity Non disponible.
SPECI KMDH 300607Z AUTO 33008KT 10SM OVC031 02/M04 A3043 RMK AO2 T00221039

More Conditions Fewer Conditions

10-Day Weather Forecast

Almanac

Astronomie

Jan. 30, 2015 Lever Coucher
Temps réel
Crépuscule civil
Crépuscule nautique
Crépuscule astronomique
Lune
Durée de lumière visible
Longueur du jour
Tomorrow will be .
, % of the Moon is Illuminated

Extrêmes aujourd'hui

State Highs State Lows

Community

WunderPhotos

Upload Photos

1,791,721 Photos téléchargées !

WunderBlogs® & News

Nearby

Qualité de l'air

  Qualité de l'air Indice de la qualité de l'air Polluant
Not available.

Épaisseur de neige

Station Depth Altitude

Activité sismique

Ville Distance Mag. Time & Date
Minimum magnitude displayed is 2.5.

Températures des eaux côtières

Lieu Température

Stations météo à proximité